createdAt,value
2023-04-08T00:02:11.331Z,18.14
2023-04-08T00:04:39.752Z,18.07
2023-04-08T00:07:08.237Z,17.98
2023-04-08T00:09:36.582Z,17.95
2023-04-08T00:12:05.072Z,17.94
2023-04-08T00:14:33.428Z,17.95
2023-04-08T00:17:02.272Z,17.98
2023-04-08T00:19:30.574Z,17.98
2023-04-08T00:21:58.903Z,17.98
2023-04-08T00:24:27.226Z,17.94
2023-04-08T00:26:55.497Z,17.97
2023-04-08T00:29:23.747Z,17.97
2023-04-08T00:31:52.280Z,17.91
2023-04-08T00:34:20.526Z,17.83
2023-04-08T00:36:48.816Z,17.72
2023-04-08T00:39:17.144Z,17.66
2023-04-08T00:41:45.440Z,17.63
2023-04-08T00:44:13.740Z,17.63
2023-04-08T00:46:42.222Z,17.62
2023-04-08T00:49:10.881Z,17.64
2023-04-08T00:51:39.291Z,17.63
2023-04-08T00:54:08.491Z,17.60
2023-04-08T00:56:37.380Z,17.52
2023-04-08T00:59:06.453Z,17.49
2023-04-08T01:01:52.602Z,17.50
2023-04-08T01:04:35.567Z,17.46
2023-04-08T01:07:25.367Z,17.36
2023-04-08T01:09:58.853Z,17.33
2023-04-08T01:12:29.992Z,17.23
2023-04-08T01:15:16.545Z,17.18
2023-04-08T01:17:45.784Z,17.11
2023-04-08T01:20:16.883Z,17.04
2023-04-08T01:23:04.612Z,17.04
2023-04-08T01:25:35.598Z,17.02
2023-04-08T01:28:13.471Z,16.96
2023-04-08T01:30:42.835Z,16.89
2023-04-08T01:33:16.373Z,16.85
2023-04-08T01:35:46.701Z,16.80
2023-04-08T01:38:20.879Z,16.81
2023-04-08T01:40:50.729Z,16.76
2023-04-08T01:43:20.658Z,16.71
2023-04-08T01:45:50.680Z,16.60
2023-04-08T01:48:19.366Z,16.52
2023-04-08T01:50:47.999Z,16.46
2023-04-08T01:53:16.392Z,16.39
2023-04-08T01:55:46.939Z,16.32
2023-04-08T01:58:21.197Z,16.22
2023-04-08T02:00:50.698Z,16.18
2023-04-08T02:03:22.263Z,16.10
2023-04-08T02:05:50.787Z,16.05
2023-04-08T02:08:19.022Z,16.00
2023-04-08T02:10:47.439Z,15.96
2023-04-08T02:13:15.724Z,15.86
2023-04-08T02:15:52.918Z,15.82
2023-04-08T02:18:30.717Z,15.77
2023-04-08T02:21:14.608Z,15.77
2023-04-08T02:23:47.307Z,15.73
2023-04-08T02:26:17.999Z,15.69
2023-04-08T02:28:49.829Z,15.63
2023-04-08T02:31:20.654Z,15.60
2023-04-08T02:33:52.384Z,15.53
2023-04-08T02:36:21.521Z,15.47
2023-04-08T02:38:51.560Z,15.42
2023-04-08T02:41:20.067Z,15.40
2023-04-08T02:43:48.858Z,15.38
2023-04-08T02:46:17.219Z,15.35
2023-04-08T02:48:45.821Z,15.31
2023-04-08T02:51:14.232Z,15.28
2023-04-08T02:53:42.624Z,15.25
2023-04-08T02:56:13.980Z,15.24
2023-04-08T02:58:42.267Z,15.21
2023-04-08T03:01:10.788Z,15.22
2023-04-08T03:03:39.269Z,15.24
2023-04-08T03:06:07.744Z,15.27
2023-04-08T03:08:36.077Z,15.25
2023-04-08T03:11:04.357Z,15.23
2023-04-08T03:13:32.750Z,15.24
2023-04-08T03:16:01.162Z,15.25
2023-04-08T03:18:29.397Z,15.23
2023-04-08T03:20:58.157Z,15.21
2023-04-08T03:23:26.541Z,15.20
2023-04-08T03:25:54.838Z,15.23
2023-04-08T03:28:23.473Z,15.23
2023-04-08T03:30:51.932Z,15.16
2023-04-08T03:33:20.199Z,15.10
2023-04-08T03:35:48.471Z,14.97
2023-04-08T03:38:16.787Z,14.84
2023-04-08T03:40:45.139Z,14.67
2023-04-08T03:43:15.297Z,14.58
2023-04-08T03:45:43.621Z,14.51
2023-04-08T03:48:11.891Z,14.42
2023-04-08T03:50:40.113Z,14.42
2023-04-08T03:53:12.059Z,14.39
2023-04-08T03:55:40.904Z,14.29
2023-04-08T03:58:09.236Z,14.22
2023-04-08T04:00:38.125Z,14.12
2023-04-08T04:03:06.536Z,14.07
2023-04-08T04:05:34.849Z,14.08
2023-04-08T04:08:03.182Z,14.09
2023-04-08T04:10:31.436Z,14.05
2023-04-08T04:12:59.701Z,14.01
2023-04-08T04:15:28.042Z,14.01
2023-04-08T04:17:56.445Z,13.96
2023-04-08T04:20:26.860Z,13.89
2023-04-08T04:22:55.162Z,13.87
2023-04-08T04:25:23.499Z,13.80
2023-04-08T04:27:51.999Z,13.78
2023-04-08T04:30:21.994Z,13.81
2023-04-08T04:32:50.292Z,13.83
2023-04-08T04:35:18.626Z,13.82
2023-04-08T04:37:48.273Z,13.78
2023-04-08T04:40:16.859Z,13.72
2023-04-08T04:42:45.396Z,13.69
2023-04-08T04:45:14.143Z,13.65
2023-04-08T04:47:42.677Z,13.67
2023-04-08T04:50:11.566Z,13.67
2023-04-08T04:52:39.932Z,13.67
2023-04-08T04:55:08.654Z,13.65
2023-04-08T04:57:37.081Z,13.62
2023-04-08T05:00:05.924Z,13.66
2023-04-08T05:02:34.516Z,13.63
2023-04-08T05:05:02.959Z,13.61
2023-04-08T05:07:31.374Z,13.62
2023-04-08T05:09:59.606Z,13.66
2023-04-08T05:12:28.524Z,13.64
2023-04-08T05:14:57.041Z,13.66
2023-04-08T05:17:25.476Z,13.61
2023-04-08T05:19:54.503Z,13.58
2023-04-08T05:22:22.827Z,13.55
2023-04-08T05:24:51.400Z,13.51
2023-04-08T05:27:19.698Z,13.47
2023-04-08T05:29:47.922Z,13.44
2023-04-08T05:32:17.855Z,13.39
2023-04-08T05:34:46.754Z,13.40
2023-04-08T05:37:15.357Z,13.45
2023-04-08T05:39:43.741Z,13.50
2023-04-08T05:42:13.731Z,13.50
2023-04-08T05:44:45.019Z,13.53
2023-04-08T05:47:14.010Z,13.52
2023-04-08T05:49:42.680Z,13.54
2023-04-08T05:52:10.961Z,13.54
2023-04-08T05:54:39.258Z,13.54
2023-04-08T05:57:09.289Z,13.56
2023-04-08T05:59:39.055Z,13.55
2023-04-08T06:02:07.415Z,13.53
2023-04-08T06:04:35.883Z,13.56
2023-04-08T06:07:05.480Z,13.59
2023-04-08T06:09:38.003Z,13.61
2023-04-08T06:12:06.656Z,13.57
2023-04-08T06:14:34.942Z,13.61
2023-04-08T06:17:03.337Z,13.61
2023-04-08T06:19:31.735Z,13.60
2023-04-08T06:22:00.281Z,13.58
2023-04-08T06:24:30.233Z,13.54
2023-04-08T06:26:58.612Z,13.53
2023-04-08T06:29:26.970Z,13.52
2023-04-08T06:31:55.255Z,13.51
2023-04-08T06:34:23.567Z,13.52
2023-04-08T06:36:52.648Z,13.52
2023-04-08T06:39:22.425Z,13.54
2023-04-08T06:41:50.922Z,13.52
2023-04-08T06:44:19.194Z,13.45
2023-04-08T06:46:47.681Z,13.42
2023-04-08T06:49:15.904Z,13.42
2023-04-08T06:51:44.383Z,13.44
2023-04-08T06:54:12.795Z,13.49
2023-04-08T06:56:41.130Z,13.46
2023-04-08T06:59:09.393Z,13.41
2023-04-08T07:01:37.764Z,13.39
2023-04-08T07:04:06.190Z,13.38
2023-04-08T07:06:34.721Z,13.38
2023-04-08T07:09:03.055Z,13.40
2023-04-08T07:11:31.319Z,13.37
2023-04-08T07:13:59.584Z,13.36
2023-04-08T07:16:27.935Z,13.37
2023-04-08T07:18:56.511Z,13.35
2023-04-08T07:21:24.818Z,13.38
2023-04-08T07:23:53.123Z,13.42
2023-04-08T07:26:21.320Z,13.46
2023-04-08T07:28:49.869Z,13.48
2023-04-08T07:31:19.643Z,13.50
2023-04-08T07:33:48.245Z,13.51
2023-04-08T07:36:19.149Z,13.50
2023-04-08T07:38:47.777Z,13.50
2023-04-08T07:41:16.686Z,13.48
2023-04-08T07:43:45.161Z,13.51
2023-04-08T07:46:13.705Z,13.53
2023-04-08T07:48:42.022Z,13.56
2023-04-08T07:51:11.747Z,13.59
2023-04-08T07:53:41.240Z,13.63
2023-04-08T07:56:19.088Z,13.58
2023-04-08T07:58:50.612Z,13.58
2023-04-08T08:01:22.716Z,13.57
2023-04-08T08:03:53.894Z,13.55
2023-04-08T08:06:23.067Z,13.48
2023-04-08T08:08:51.386Z,13.46
2023-04-08T08:11:19.699Z,13.47
2023-04-08T08:13:48.314Z,13.44
2023-04-08T08:16:16.974Z,13.45
2023-04-08T08:18:45.213Z,13.42
2023-04-08T08:21:13.577Z,13.38
2023-04-08T08:23:41.933Z,13.35
2023-04-08T08:26:11.434Z,13.36
2023-04-08T08:28:40.491Z,13.32
2023-04-08T08:31:08.885Z,13.26
2023-04-08T08:33:37.217Z,13.23
2023-04-08T08:36:06.491Z,13.23
2023-04-08T08:38:34.966Z,13.15
2023-04-08T08:41:04.897Z,13.07
2023-04-08T08:43:36.626Z,13.03
2023-04-08T08:46:05.056Z,13.04
2023-04-08T08:48:34.016Z,13.03
2023-04-08T08:51:02.489Z,13.03
2023-04-08T08:53:34.405Z,13.04
2023-04-08T08:56:17.303Z,13.05
2023-04-08T08:58:46.776Z,13.11
2023-04-08T09:01:38.727Z,13.16
2023-04-08T09:04:19.301Z,13.11
2023-04-08T09:06:50.990Z,13.11
2023-04-08T09:09:19.713Z,13.08
2023-04-08T09:11:48.896Z,13.08
2023-04-08T09:14:21.606Z,13.10
2023-04-08T09:16:50.431Z,13.10
2023-04-08T09:19:18.933Z,13.06
2023-04-08T09:21:48.597Z,13.02
2023-04-08T09:24:31.248Z,12.99
2023-04-08T09:26:59.603Z,12.94
2023-04-08T09:29:32.048Z,12.98
2023-04-08T09:32:03.044Z,13.01
2023-04-08T09:34:33.220Z,13.04
2023-04-08T09:37:01.710Z,13.05
2023-04-08T09:39:30.012Z,13.09
2023-04-08T09:42:02.161Z,13.11
2023-04-08T09:44:32.451Z,13.13
2023-04-08T09:47:13.968Z,13.12
2023-04-08T09:49:48.522Z,13.10
2023-04-08T09:52:25.504Z,13.08
2023-04-08T09:55:01.510Z,13.10
2023-04-08T09:57:43.503Z,13.08
2023-04-08T10:00:16.357Z,13.05
2023-04-08T10:03:08.620Z,13.04
2023-04-08T10:05:43.175Z,12.99
2023-04-08T10:08:11.978Z,12.98
2023-04-08T10:10:42.565Z,12.93
2023-04-08T10:13:11.285Z,12.88
2023-04-08T10:15:41.777Z,12.84
2023-04-08T10:18:14.640Z,12.88
2023-04-08T10:20:43.995Z,12.92
2023-04-08T10:23:14.881Z,12.91
2023-04-08T10:25:43.859Z,12.89
2023-04-08T10:28:21.134Z,12.81
2023-04-08T10:30:56.823Z,12.83
2023-04-08T10:33:26.783Z,12.82
2023-04-08T10:35:57.512Z,12.86
2023-04-08T10:38:26.362Z,12.86
2023-04-08T10:40:55.930Z,12.87
2023-04-08T10:43:25.030Z,12.86
2023-04-08T10:45:55.125Z,12.85
2023-04-08T10:48:31.329Z,12.88
2023-04-08T10:51:04.730Z,12.85
2023-04-08T10:53:34.457Z,12.82
2023-04-08T10:56:14.243Z,12.85
2023-04-08T10:58:53.333Z,12.85
2023-04-08T11:01:22.228Z,12.86
2023-04-08T11:03:51.157Z,12.86
2023-04-08T11:06:20.442Z,12.85
2023-04-08T11:08:49.037Z,12.82
2023-04-08T11:11:17.382Z,12.79
2023-04-08T11:13:52.790Z,12.75
2023-04-08T11:16:26.919Z,12.72
2023-04-08T11:18:55.182Z,12.73
2023-04-08T11:21:26.782Z,12.72
2023-04-08T11:23:55.187Z,12.76
2023-04-08T11:26:24.358Z,12.75
2023-04-08T11:28:53.333Z,12.75
2023-04-08T11:31:24.941Z,12.74
2023-04-08T11:33:57.030Z,12.68
2023-04-08T11:36:26.073Z,12.67
2023-04-08T11:38:56.661Z,12.65
2023-04-08T11:41:25.092Z,12.64
2023-04-08T11:43:54.925Z,12.63
2023-04-08T11:46:23.908Z,12.62
2023-04-08T11:49:09.047Z,12.60
2023-04-08T11:51:56.180Z,12.60
2023-04-08T11:54:32.813Z,12.62
2023-04-08T11:57:01.734Z,12.57
2023-04-08T11:59:30.045Z,12.53
2023-04-08T12:01:58.704Z,12.51
2023-04-08T12:04:27.143Z,12.53
2023-04-08T12:06:56.944Z,12.53
2023-04-08T12:09:26.593Z,12.50
2023-04-08T12:11:54.806Z,12.51
2023-04-08T12:14:26.809Z,12.56
2023-04-08T12:16:56.417Z,12.59
2023-04-08T12:19:24.724Z,12.61
2023-04-08T12:21:52.973Z,12.61
2023-04-08T12:24:21.994Z,12.62
2023-04-08T12:26:50.204Z,12.64
2023-04-08T12:29:18.434Z,12.64
2023-04-08T12:31:46.934Z,12.63
2023-04-08T12:34:15.205Z,12.63
2023-04-08T12:36:43.763Z,12.64
2023-04-08T12:39:12.033Z,12.60
2023-04-08T12:41:40.288Z,12.59
2023-04-08T12:44:08.717Z,12.58
2023-04-08T12:46:36.986Z,12.60
2023-04-08T12:49:06.059Z,12.60
2023-04-08T12:51:35.378Z,12.58
2023-04-08T12:54:04.925Z,12.56
2023-04-08T12:56:33.840Z,12.50
2023-04-08T12:59:02.474Z,12.49
2023-04-08T13:01:31.596Z,12.48
2023-04-08T13:03:59.983Z,12.47
2023-04-08T13:06:29.004Z,12.45
2023-04-08T13:08:57.260Z,12.45
2023-04-08T13:11:25.566Z,12.43
2023-04-08T13:13:53.842Z,12.43
2023-04-08T13:16:22.854Z,12.43
2023-04-08T13:18:51.397Z,12.44
2023-04-08T13:21:19.861Z,12.45
2023-04-08T13:23:48.073Z,12.46
2023-04-08T13:26:16.393Z,12.45
2023-04-08T13:31:18.321Z,12.43
2023-04-08T13:33:47.003Z,12.45
2023-04-08T13:36:15.320Z,12.47
2023-04-08T13:38:44.504Z,12.47
2023-04-08T13:41:12.791Z,12.47
2023-04-08T13:43:41.067Z,12.49
2023-04-08T13:46:09.351Z,12.49
2023-04-08T13:48:37.596Z,12.49
2023-04-08T13:51:06.341Z,12.51
2023-04-08T13:53:34.583Z,12.53
2023-04-08T13:56:02.853Z,12.57
2023-04-08T13:58:31.348Z,12.57
2023-04-08T14:00:59.620Z,12.58
2023-04-08T14:03:28.904Z,12.62
2023-04-08T14:05:59.180Z,12.64
2023-04-08T14:08:29.377Z,12.65
2023-04-08T14:10:58.593Z,12.66
2023-04-08T14:13:26.877Z,12.69
2023-04-08T14:15:59.030Z,12.73
2023-04-08T14:18:27.408Z,12.81
2023-04-08T14:20:55.709Z,12.86
2023-04-08T14:23:24.021Z,12.89
2023-04-08T14:25:52.237Z,12.91
2023-04-08T14:28:20.486Z,12.90
2023-04-08T14:30:48.826Z,12.90
2023-04-08T14:33:17.115Z,12.92
2023-04-08T14:35:45.810Z,12.91
2023-04-08T14:38:14.157Z,12.87
2023-04-08T14:40:42.441Z,12.85
2023-04-08T14:43:10.696Z,12.85
2023-04-08T14:45:38.961Z,12.90
2023-04-08T14:48:07.431Z,12.94
2023-04-08T14:50:35.702Z,12.99
2023-04-08T14:53:04.427Z,13.00
2023-04-08T14:55:33.264Z,13.02
2023-04-08T14:58:01.886Z,13.06
2023-04-08T15:00:30.288Z,13.07
2023-04-08T15:02:58.776Z,13.10
2023-04-08T15:05:27.453Z,13.11
2023-04-08T15:07:55.795Z,13.13
2023-04-08T15:10:24.007Z,13.18
2023-04-08T15:12:52.363Z,13.23
2023-04-08T15:15:20.701Z,13.24
2023-04-08T15:17:51.603Z,13.24
2023-04-08T15:20:21.070Z,13.23
2023-04-08T15:22:51.529Z,13.23
2023-04-08T15:25:20.057Z,13.22
2023-04-08T15:27:48.369Z,13.24
2023-04-08T15:30:18.004Z,13.30
2023-04-08T15:32:46.307Z,13.38
2023-04-08T15:35:14.566Z,13.43
2023-04-08T15:37:42.788Z,13.48
2023-04-08T15:40:11.392Z,13.51
2023-04-08T15:42:39.717Z,13.54
2023-04-08T15:45:08.820Z,13.54
2023-04-08T15:47:37.578Z,13.64
2023-04-08T15:50:06.258Z,13.70
2023-04-08T15:52:36.025Z,13.74
2023-04-08T15:55:04.365Z,13.90
2023-04-08T15:57:33.292Z,13.99
2023-04-08T16:00:01.534Z,14.04
2023-04-08T16:02:30.465Z,14.11
2023-04-08T16:04:58.827Z,14.14
2023-04-08T16:07:27.060Z,14.19
2023-04-08T16:09:55.334Z,14.26
2023-04-08T16:12:25.956Z,14.28
2023-04-08T16:14:54.304Z,14.32
2023-04-08T16:17:22.740Z,14.33
2023-04-08T16:19:52.692Z,14.30
2023-04-08T16:22:21.079Z,14.33
2023-04-08T16:24:49.488Z,14.38
2023-04-08T16:27:17.989Z,14.49
2023-04-08T16:29:47.349Z,14.59
2023-04-08T16:32:15.717Z,14.74
2023-04-08T16:34:43.964Z,14.82
2023-04-08T16:37:14.774Z,14.93
2023-04-08T16:39:43.215Z,15.07
2023-04-08T16:42:11.563Z,15.06
2023-04-08T16:44:39.853Z,15.23
2023-04-08T16:47:08.193Z,15.43
2023-04-08T16:49:36.613Z,15.47
2023-04-08T16:52:04.882Z,15.52
2023-04-08T16:54:33.162Z,15.68
2023-04-08T16:57:01.513Z,15.75
2023-04-08T16:59:30.120Z,15.78
2023-04-08T17:01:58.579Z,15.83
2023-04-08T17:04:26.841Z,15.93
2023-04-08T17:06:55.174Z,16.05
2023-04-08T17:09:23.934Z,16.15
2023-04-08T17:11:52.349Z,16.22
2023-04-08T17:14:20.776Z,16.29
2023-04-08T17:16:49.240Z,16.30
2023-04-08T17:19:18.606Z,16.27
2023-04-08T17:21:47.350Z,16.26
2023-04-08T17:24:15.673Z,16.38
2023-04-08T17:26:44.036Z,16.52
2023-04-08T17:29:13.126Z,16.67
2023-04-08T17:31:42.296Z,16.77
2023-04-08T17:34:10.618Z,16.91
2023-04-08T17:36:38.901Z,17.07
2023-04-08T17:39:07.326Z,17.17
2023-04-08T17:41:40.095Z,17.15
2023-04-08T17:44:09.516Z,17.18
2023-04-08T17:46:38.139Z,17.25
2023-04-08T17:49:06.509Z,17.34
2023-04-08T17:51:35.218Z,17.43
2023-04-08T17:54:03.619Z,17.53
2023-04-08T17:56:32.175Z,17.62
2023-04-08T17:59:00.442Z,17.66
2023-04-08T18:01:28.949Z,17.62
2023-04-08T18:03:57.944Z,17.62
2023-04-08T18:06:27.015Z,17.72
2023-04-08T18:08:55.520Z,17.84
2023-04-08T18:11:27.358Z,17.89
2023-04-08T18:13:55.658Z,17.92
2023-04-08T18:16:24.390Z,17.97
2023-04-08T18:18:52.785Z,18.01
2023-04-08T18:21:22.784Z,18.06
2023-04-08T18:23:51.998Z,18.16
2023-04-08T18:26:20.568Z,18.20
2023-04-08T18:28:48.863Z,18.20
2023-04-08T18:31:17.579Z,18.27
2023-04-08T18:33:46.102Z,18.36
2023-04-08T18:36:14.837Z,18.40
2023-04-08T18:38:43.151Z,18.40
2023-04-08T18:41:12.466Z,18.46
2023-04-08T18:43:40.736Z,18.50
2023-04-08T18:46:09.078Z,18.61
2023-04-08T18:48:37.401Z,18.71
2023-04-08T18:51:05.610Z,18.92
2023-04-08T18:53:33.870Z,19.08
2023-04-08T18:56:02.196Z,19.17
2023-04-08T18:58:30.430Z,19.15
2023-04-08T19:00:59.152Z,19.15
2023-04-08T19:03:28.208Z,19.14
2023-04-08T19:05:56.489Z,19.10
2023-04-08T19:08:24.731Z,19.12
2023-04-08T19:10:52.988Z,19.17
2023-04-08T19:13:23.076Z,19.22
2023-04-08T19:15:51.508Z,19.24
2023-04-08T19:18:19.786Z,19.26
2023-04-08T19:20:48.235Z,19.39
2023-04-08T19:23:17.010Z,19.55
2023-04-08T19:25:45.793Z,19.70
2023-04-08T19:28:15.254Z,19.80
2023-04-08T19:30:43.518Z,19.96
2023-04-08T19:33:11.907Z,19.98
2023-04-08T19:35:40.493Z,20.00
2023-04-08T19:38:09.203Z,20.01
2023-04-08T19:40:37.454Z,20.07
2023-04-08T19:43:05.985Z,20.17
2023-04-08T19:45:34.493Z,20.23
2023-04-08T19:48:02.788Z,20.15
2023-04-08T19:50:31.004Z,20.11
2023-04-08T19:52:59.287Z,19.99
2023-04-08T19:55:27.604Z,20.00
2023-04-08T19:57:56.536Z,20.05
2023-04-08T20:00:25.888Z,20.07
2023-04-08T20:02:54.324Z,20.11
2023-04-08T20:05:23.037Z,20.23
2023-04-08T20:07:51.554Z,20.34
2023-04-08T20:10:19.799Z,20.33
2023-04-08T20:12:48.214Z,20.18
2023-04-08T20:15:24.012Z,19.95
2023-04-08T20:17:53.874Z,19.82
2023-04-08T20:20:22.330Z,19.68
2023-04-08T20:22:51.040Z,19.59
2023-04-08T20:25:19.427Z,19.57
2023-04-08T20:27:49.216Z,19.63
2023-04-08T20:30:17.528Z,19.79
2023-04-08T20:32:45.981Z,19.91
2023-04-08T20:35:14.451Z,20.06
2023-04-08T20:37:42.781Z,20.13
2023-04-08T20:40:11.498Z,20.29
2023-04-08T20:42:40.310Z,20.48
2023-04-08T20:45:09.295Z,20.49
2023-04-08T20:47:37.605Z,20.36
2023-04-08T20:50:06.945Z,20.34
2023-04-08T20:52:35.227Z,20.30
2023-04-08T20:55:03.528Z,20.28
2023-04-08T20:57:31.877Z,20.25
2023-04-08T21:00:00.215Z,20.31
2023-04-08T21:02:28.699Z,20.38
2023-04-08T21:04:57.215Z,20.40
2023-04-08T21:07:28.349Z,20.41
2023-04-08T21:09:56.724Z,20.44
2023-04-08T21:12:24.979Z,20.39
2023-04-08T21:14:53.188Z,20.54
2023-04-08T21:17:21.439Z,20.71
2023-04-08T21:19:49.680Z,20.84
2023-04-08T21:22:18.493Z,20.85
2023-04-08T21:24:47.103Z,20.84
2023-04-08T21:27:15.419Z,20.88
2023-04-08T21:29:43.742Z,20.93
2023-04-08T21:32:12.091Z,21.06
2023-04-08T21:34:40.380Z,21.11
2023-04-08T21:37:08.620Z,21.25
2023-04-08T21:39:37.112Z,21.40
2023-04-08T21:42:05.550Z,21.50
2023-04-08T21:44:34.218Z,21.61
2023-04-08T21:47:02.558Z,21.73
2023-04-08T21:49:30.808Z,21.98
2023-04-08T21:51:59.375Z,22.04
2023-04-08T21:54:27.683Z,22.08
2023-04-08T21:56:57.573Z,22.13
2023-04-08T21:59:25.946Z,22.21
2023-04-08T22:01:54.405Z,22.46
2023-04-08T22:04:22.731Z,22.68
2023-04-08T22:06:52.020Z,22.86
2023-04-08T22:09:20.496Z,23.15
2023-04-08T22:11:48.795Z,23.34
2023-04-08T22:14:18.242Z,23.45
2023-04-08T22:16:46.684Z,23.42
2023-04-08T22:19:15.060Z,23.49
2023-04-08T22:21:43.466Z,23.53
2023-04-08T22:24:12.095Z,23.48
2023-04-08T22:26:40.376Z,23.58
2023-04-08T22:29:08.683Z,23.54
2023-04-08T22:31:37.132Z,23.39
2023-04-08T22:34:05.474Z,23.23
2023-04-08T22:36:34.075Z,23.24
2023-04-08T22:39:02.350Z,23.11
2023-04-08T22:41:30.602Z,23.01
2023-04-08T22:43:58.903Z,22.96
2023-04-08T22:46:27.524Z,22.90
2023-04-08T22:48:55.931Z,22.75
2023-04-08T22:51:24.257Z,22.65
2023-04-08T22:53:52.644Z,22.55
2023-04-08T22:56:20.885Z,22.52
2023-04-08T22:58:49.302Z,22.35
2023-04-08T23:01:21.683Z,22.01
2023-04-08T23:03:50.812Z,21.77
2023-04-08T23:06:19.167Z,21.63
2023-04-08T23:08:47.658Z,21.48
2023-04-08T23:11:16.245Z,21.38
2023-04-08T23:13:44.700Z,21.27
2023-04-08T23:16:13.080Z,21.12
2023-04-08T23:18:41.519Z,21.12
2023-04-08T23:21:09.800Z,21.04
2023-04-08T23:23:38.061Z,20.95
2023-04-08T23:26:06.588Z,20.96
2023-04-08T23:28:34.863Z,21.03
2023-04-08T23:31:06.299Z,20.88
2023-04-08T23:33:34.574Z,20.74
2023-04-08T23:36:07.487Z,20.65
2023-04-08T23:38:37.845Z,20.56
2023-04-08T23:41:07.103Z,20.41
2023-04-08T23:43:36.716Z,20.32
2023-04-08T23:46:05.059Z,20.20
2023-04-08T23:48:33.464Z,20.16
2023-04-08T23:51:02.072Z,20.19
2023-04-08T23:53:30.350Z,20.18
2023-04-08T23:56:09.018Z,20.09
2023-04-08T23:58:37.650Z,20.12
